Terminal Aerodrome Forecast
Issued by NWS King Salmon, AK

Home | Current Version | Previous Version | Text Only | Print | Product List | Glossary On
Versions: 1 2 3 4 5 6 7 8 9 10 11 12 13 14 15 16 17 18 19 20 21 22 23 24 25 26 27 28 29 30 31 32 33 34 35 36
000
FTAK31 PANC 221422 AAB
TAFAKN
TAF AMD
PAKN 221422Z 2214/2312 19005KT P6SM VCFG BKN002 BKN120
      TEMPO 2214/2218 2SM BR OVC002
     FM221900 26007KT P6SM BKN120=

USA.gov is the U.S. government's official web portal to all federal, state and local government web resources and services.